createdAt,value
2022-08-03T00:00:27.139Z,85.20
2022-08-03T00:02:54.185Z,85.30
2022-08-03T00:05:21.434Z,85.40
2022-08-03T00:07:49.495Z,85.50
2022-08-03T00:10:16.912Z,85.50
2022-08-03T00:12:43.821Z,85.60
2022-08-03T00:15:15.190Z,85.70
2022-08-03T00:17:52.431Z,85.90
2022-08-03T00:20:20.094Z,85.90
2022-08-03T00:22:47.054Z,86.00
2022-08-03T00:25:13.880Z,86.10
2022-08-03T00:27:40.796Z,86.20
2022-08-03T00:30:08.423Z,86.30
2022-08-03T00:32:35.250Z,86.50
2022-08-03T00:35:05.689Z,86.70
2022-08-03T00:37:41.570Z,86.90
2022-08-03T00:40:13.740Z,87.00
2022-08-03T00:42:51.423Z,87.00
2022-08-03T00:45:18.868Z,87.20
2022-08-03T00:47:46.019Z,87.20
2022-08-03T00:50:13.294Z,87.40
2022-08-03T00:52:40.553Z,87.50
2022-08-03T00:55:07.722Z,87.70
2022-08-03T00:57:34.767Z,87.80
2022-08-03T01:00:01.857Z,87.90
2022-08-03T01:02:29.212Z,87.90
2022-08-03T01:04:56.449Z,88.00
2022-08-03T01:07:44.997Z,88.00
2022-08-03T01:10:29.642Z,88.20
2022-08-03T01:13:04.986Z,88.30
2022-08-03T01:15:34.786Z,88.40
2022-08-03T01:18:32.911Z,88.50
2022-08-03T01:20:59.884Z,88.70
2022-08-03T01:23:29.015Z,88.60
2022-08-03T01:26:17.893Z,88.80
2022-08-03T01:28:47.757Z,89.00
2022-08-03T01:31:15.690Z,88.90
2022-08-03T01:33:43.879Z,88.90
2022-08-03T01:36:15.132Z,89.00
2022-08-03T01:38:48.807Z,89.20
2022-08-03T01:41:34.161Z,89.50
2022-08-03T01:44:29.610Z,89.30
2022-08-03T01:46:51.486Z,89.30
2022-08-03T01:49:18.505Z,89.40
2022-08-03T01:51:57.941Z,89.50
2022-08-03T01:54:35.507Z,89.60
2022-08-03T01:57:02.467Z,89.60
2022-08-03T01:59:29.695Z,89.70
2022-08-03T02:02:28.536Z,89.80
2022-08-03T02:04:43.769Z,89.80
2022-08-03T02:07:11.230Z,89.90
2022-08-03T02:09:39.272Z,90.00
2022-08-03T02:12:10.465Z,90.00
2022-08-03T02:14:37.765Z,90.00
2022-08-03T02:17:05.454Z,90.00
2022-08-03T02:19:35.633Z,90.00
2022-08-03T02:22:03.338Z,90.10
2022-08-03T02:24:31.407Z,90.10
2022-08-03T02:26:58.574Z,90.10
2022-08-03T02:29:40.128Z,90.10
2022-08-03T02:32:11.917Z,90.10
2022-08-03T02:34:38.689Z,90.10
2022-08-03T02:37:06.093Z,90.10
2022-08-03T02:39:33.423Z,90.00
2022-08-03T02:42:03.206Z,90.00
2022-08-03T02:44:32.630Z,90.10
2022-08-03T02:47:02.358Z,90.10
2022-08-03T02:49:49.693Z,90.10
2022-08-03T02:52:17.143Z,90.00
2022-08-03T02:54:44.818Z,90.00
2022-08-03T02:57:11.765Z,90.00
2022-08-03T02:59:38.739Z,90.00
2022-08-03T03:02:05.681Z,90.00
2022-08-03T03:04:33.470Z,90.00
2022-08-03T03:07:01.907Z,90.00
2022-08-03T03:09:43.281Z,90.00
2022-08-03T03:12:11.355Z,90.00
2022-08-03T03:14:38.397Z,90.00
2022-08-03T03:17:06.686Z,90.00
2022-08-03T03:19:33.951Z,90.00
2022-08-03T03:22:01.617Z,89.90
2022-08-03T03:24:29.104Z,89.90
2022-08-03T03:26:56.553Z,89.90
2022-08-03T03:29:23.457Z,89.90
2022-08-03T03:31:50.239Z,89.90
2022-08-03T03:34:17.089Z,89.90
2022-08-03T03:36:44.167Z,89.90
2022-08-03T03:39:15.247Z,89.90
2022-08-03T03:41:43.399Z,89.90
2022-08-03T03:44:10.523Z,89.80
2022-08-03T03:46:38.440Z,89.70
2022-08-03T03:49:07.322Z,89.70
2022-08-03T03:51:34.611Z,89.60
2022-08-03T03:54:02.886Z,89.60
2022-08-03T03:56:29.871Z,89.60
2022-08-03T03:58:56.652Z,89.60
2022-08-03T04:01:23.587Z,89.50
2022-08-03T04:03:50.636Z,90.00
2022-08-03T04:06:35.921Z,89.50
2022-08-03T04:09:21.574Z,89.50
2022-08-03T04:11:54.578Z,89.40
2022-08-03T04:14:23.367Z,89.30
2022-08-03T04:16:58.717Z,89.20
2022-08-03T04:19:31.065Z,89.10
2022-08-03T04:22:00.581Z,89.10
2022-08-03T04:24:43.022Z,89.10
2022-08-03T04:27:11.880Z,89.10
2022-08-03T04:29:44.748Z,89.00
2022-08-03T04:32:16.037Z,89.00
2022-08-03T04:34:43.012Z,89.00
2022-08-03T04:37:12.236Z,88.90
2022-08-03T04:39:39.722Z,88.90
2022-08-03T04:42:16.976Z,88.80
2022-08-03T04:44:44.263Z,88.90
2022-08-03T04:47:11.220Z,88.90
2022-08-03T04:49:38.526Z,88.90
2022-08-03T04:52:07.385Z,88.90
2022-08-03T04:54:50.067Z,89.00
2022-08-03T04:57:21.998Z,89.00
2022-08-03T05:00:01.030Z,88.90
2022-08-03T05:02:28.988Z,88.80
2022-08-03T05:04:55.757Z,88.70
2022-08-03T05:07:24.899Z,88.70
2022-08-03T05:10:01.675Z,88.70
2022-08-03T05:12:32.747Z,88.60
2022-08-03T05:15:00.376Z,88.70
2022-08-03T05:17:27.172Z,88.50
2022-08-03T05:19:54.504Z,88.50
2022-08-03T05:22:22.038Z,88.60
2022-08-03T05:24:49.044Z,88.60
2022-08-03T05:27:21.689Z,88.50
2022-08-03T05:29:49.520Z,88.40
2022-08-03T05:32:16.925Z,88.30
2022-08-03T05:34:43.943Z,88.20
2022-08-03T05:37:10.815Z,88.20
2022-08-03T05:39:38.275Z,88.30
2022-08-03T05:42:05.171Z,88.20
2022-08-03T05:44:32.378Z,88.20
2022-08-03T05:46:59.623Z,88.20
2022-08-03T05:49:26.575Z,88.20
2022-08-03T05:52:00.013Z,88.20
2022-08-03T05:54:56.987Z,88.20
2022-08-03T05:57:25.596Z,88.10
2022-08-03T05:59:54.777Z,88.10
2022-08-03T06:02:28.956Z,88.00
2022-08-03T06:04:55.746Z,88.00
2022-08-03T06:07:22.622Z,87.90
2022-08-03T06:10:37.319Z,87.80
2022-08-03T06:12:36.470Z,87.80
2022-08-03T06:15:04.427Z,87.90
2022-08-03T06:17:37.228Z,87.80
2022-08-03T06:20:06.315Z,87.70
2022-08-03T06:22:33.323Z,87.60
2022-08-03T06:25:04.881Z,87.50
2022-08-03T06:27:37.681Z,87.50
2022-08-03T06:30:05.464Z,87.40
2022-08-03T06:32:32.414Z,87.20
2022-08-03T06:34:59.714Z,87.20
2022-08-03T06:37:27.297Z,87.20
2022-08-03T06:39:54.294Z,87.10
2022-08-03T06:42:21.410Z,87.10
2022-08-03T06:44:49.816Z,87.10
2022-08-03T06:47:17.377Z,87.10
2022-08-03T06:49:44.515Z,87.10
2022-08-03T06:52:37.153Z,87.10
2022-08-03T06:55:06.006Z,87.00
2022-08-03T06:57:33.281Z,87.00
2022-08-03T07:00:10.469Z,86.90
2022-08-03T07:02:39.826Z,86.70
2022-08-03T07:05:07.492Z,86.70
2022-08-03T07:07:34.386Z,86.60
2022-08-03T07:10:02.417Z,86.60
2022-08-03T07:12:29.798Z,86.40
2022-08-03T07:15:00.751Z,86.20
2022-08-03T07:17:30.223Z,86.20
2022-08-03T07:19:57.705Z,86.10
2022-08-03T07:22:24.566Z,86.10
2022-08-03T07:24:51.373Z,86.00
2022-08-03T07:27:18.315Z,86.00
2022-08-03T07:29:45.192Z,86.10
2022-08-03T07:32:12.201Z,86.00
2022-08-03T07:34:39.125Z,86.10
2022-08-03T07:37:06.023Z,86.00
2022-08-03T07:39:32.921Z,86.00
2022-08-03T07:41:59.755Z,86.10
2022-08-03T07:44:26.976Z,86.00
2022-08-03T07:46:53.777Z,85.70
2022-08-03T07:49:20.938Z,85.60
2022-08-03T07:52:07.813Z,85.70
2022-08-03T07:54:34.727Z,85.60
2022-08-03T07:57:01.676Z,85.50
2022-08-03T07:59:28.708Z,85.30
2022-08-03T08:02:15.791Z,85.20
2022-08-03T08:04:43.094Z,85.20
2022-08-03T08:07:10.038Z,84.90
2022-08-03T08:09:36.898Z,85.00
2022-08-03T08:12:04.435Z,84.90
2022-08-03T08:14:42.493Z,84.90
2022-08-03T08:17:09.332Z,84.90
2022-08-03T08:19:38.291Z,84.90
2022-08-03T08:22:10.701Z,84.90
2022-08-03T08:24:38.402Z,84.80
2022-08-03T08:27:06.405Z,84.70
2022-08-03T08:29:33.536Z,84.50
2022-08-03T08:32:01.825Z,84.30
2022-08-03T08:34:28.578Z,84.10
2022-08-03T08:36:59.691Z,83.80
2022-08-03T08:39:29.409Z,83.50
2022-08-03T08:41:56.983Z,83.40
2022-08-03T08:44:23.865Z,83.40
2022-08-03T08:46:51.114Z,83.40
2022-08-03T08:49:19.045Z,83.20
2022-08-03T08:51:59.493Z,83.10
2022-08-03T08:54:28.116Z,82.80
2022-08-03T08:56:59.355Z,82.30
2022-08-03T08:59:26.409Z,82.10
2022-08-03T09:02:13.757Z,81.80
2022-08-03T09:04:40.725Z,82.20
2022-08-03T09:07:29.181Z,81.60
2022-08-03T09:10:11.437Z,81.60
2022-08-03T09:12:44.041Z,81.30
2022-08-03T09:15:24.587Z,81.10
2022-08-03T09:17:52.683Z,80.90
2022-08-03T09:20:20.272Z,80.90
2022-08-03T09:23:44.685Z,80.80
2022-08-03T09:25:58.227Z,80.40
2022-08-03T09:28:52.687Z,80.30
2022-08-03T09:31:13.765Z,80.00
2022-08-03T09:33:50.097Z,79.70
2022-08-03T09:36:48.492Z,79.30
2022-08-03T09:39:16.504Z,79.00
2022-08-03T09:41:45.616Z,78.90
2022-08-03T09:44:24.443Z,78.70
2022-08-03T09:46:54.576Z,78.40
2022-08-03T09:49:21.564Z,78.40
2022-08-03T09:52:33.519Z,79.00
2022-08-03T09:54:35.385Z,78.30
2022-08-03T09:57:02.666Z,78.10
2022-08-03T09:59:30.885Z,78.00
2022-08-03T10:01:58.665Z,78.10
2022-08-03T10:04:26.037Z,78.10
2022-08-03T10:07:11.510Z,77.80
2022-08-03T10:09:38.738Z,77.40
2022-08-03T10:12:13.365Z,77.10
2022-08-03T10:14:41.963Z,77.60
2022-08-03T10:17:09.860Z,76.50
2022-08-03T10:19:36.834Z,76.00
2022-08-03T10:22:27.512Z,75.70
2022-08-03T10:24:57.468Z,75.20
2022-08-03T10:27:24.928Z,75.10
2022-08-03T10:29:54.330Z,74.50
2022-08-03T10:32:54.877Z,74.00
2022-08-03T10:35:24.739Z,73.70
2022-08-03T10:38:07.710Z,73.30
2022-08-03T10:40:53.502Z,72.70
2022-08-03T10:43:26.594Z,72.90
2022-08-03T10:45:53.606Z,72.60
2022-08-03T10:48:20.991Z,72.20
2022-08-03T10:50:49.144Z,72.10
2022-08-03T10:53:18.671Z,71.70
2022-08-03T10:56:09.159Z,71.70
2022-08-03T10:58:57.130Z,70.60
2022-08-03T11:01:58.525Z,70.30
2022-08-03T11:04:29.566Z,70.10
2022-08-03T11:07:16.723Z,70.30
2022-08-03T11:09:44.802Z,70.50
2022-08-03T11:12:30.175Z,70.60
2022-08-03T11:15:08.641Z,70.10
2022-08-03T11:17:46.421Z,69.40
2022-08-03T11:20:44.879Z,69.00
2022-08-03T11:23:12.044Z,68.20
2022-08-03T11:26:27.611Z,67.70
2022-08-03T11:29:03.470Z,66.90
2022-08-03T11:31:51.901Z,66.50
2022-08-03T11:34:19.066Z,66.00
2022-08-03T11:37:18.168Z,65.50
2022-08-03T11:39:46.827Z,64.60
2022-08-03T11:42:40.401Z,64.20
2022-08-03T11:45:08.162Z,64.40
2022-08-03T11:47:37.324Z,64.40
2022-08-03T11:50:19.090Z,63.90
2022-08-03T11:52:46.133Z,63.80
2022-08-03T11:55:14.425Z,63.80
2022-08-03T11:59:00.756Z,64.10
2022-08-03T12:00:32.543Z,64.50
2022-08-03T12:03:05.671Z,64.50
2022-08-03T12:05:51.880Z,64.70
2022-08-03T12:08:40.372Z,64.80
2022-08-03T12:11:09.389Z,64.90
2022-08-03T12:14:33.036Z,64.80
2022-08-03T12:16:28.823Z,64.10
2022-08-03T12:19:00.822Z,63.80
2022-08-03T12:21:29.969Z,63.40
2022-08-03T12:24:00.647Z,63.40
2022-08-03T12:26:28.665Z,62.90
2022-08-03T12:28:55.685Z,62.90
2022-08-03T12:31:22.977Z,62.70
2022-08-03T12:34:03.713Z,62.10
2022-08-03T12:36:32.426Z,61.40
2022-08-03T12:39:04.287Z,61.30
2022-08-03T12:41:38.658Z,61.20
2022-08-03T12:44:06.466Z,61.30
2022-08-03T12:46:34.893Z,61.00
2022-08-03T12:49:03.116Z,60.90
2022-08-03T12:51:32.241Z,60.90
2022-08-03T12:53:59.758Z,60.50
2022-08-03T12:56:26.873Z,60.10
2022-08-03T12:58:53.818Z,59.80
2022-08-03T13:01:22.655Z,59.30
2022-08-03T13:03:52.687Z,58.90
2022-08-03T13:06:22.356Z,58.50
2022-08-03T13:08:49.688Z,58.40
2022-08-03T13:11:57.562Z,57.80
2022-08-03T13:14:16.878Z,57.50
2022-08-03T13:16:48.119Z,57.80
2022-08-03T13:19:15.272Z,57.90
2022-08-03T13:22:01.835Z,57.90
2022-08-03T13:24:31.338Z,57.70
2022-08-03T13:26:59.287Z,58.40
2022-08-03T13:29:29.090Z,57.90
2022-08-03T13:31:58.860Z,57.40
2022-08-03T13:34:26.141Z,57.00
2022-08-03T13:37:08.558Z,56.60
2022-08-03T13:39:58.324Z,56.10
2022-08-03T13:42:23.622Z,56.00
2022-08-03T13:44:51.084Z,55.20
2022-08-03T13:47:18.191Z,54.70
2022-08-03T13:50:00.385Z,54.20
2022-08-03T13:52:33.567Z,53.50
2022-08-03T13:55:01.476Z,52.50
2022-08-03T13:58:03.797Z,52.40
2022-08-03T14:00:27.252Z,52.50
2022-08-03T14:03:03.002Z,53.40
2022-08-03T14:05:35.843Z,53.10
2022-08-03T14:08:04.851Z,52.90
2022-08-03T14:10:33.754Z,52.70
2022-08-03T14:13:01.211Z,52.80
2022-08-03T14:15:29.581Z,52.40
2022-08-03T14:17:58.732Z,52.20
2022-08-03T14:20:38.783Z,51.90
2022-08-03T14:23:14.373Z,51.60
2022-08-03T14:25:43.431Z,51.00
2022-08-03T14:28:17.827Z,50.80
2022-08-03T14:30:44.841Z,50.30
2022-08-03T14:33:11.918Z,50.30
2022-08-03T14:35:39.122Z,50.10
2022-08-03T14:38:06.217Z,49.60
2022-08-03T14:40:33.241Z,49.10
2022-08-03T14:43:00.315Z,48.90
2022-08-03T14:45:27.573Z,49.00
2022-08-03T14:50:32.161Z,48.80
2022-08-03T14:50:46.770Z,48.70
2022-08-03T14:53:17.738Z,48.70
2022-08-03T14:55:50.419Z,49.30
2022-08-03T14:58:21.982Z,49.40
2022-08-03T15:00:50.223Z,49.70
2022-08-03T15:03:20.369Z,49.80
2022-08-03T15:05:47.567Z,50.00
2022-08-03T15:08:16.362Z,50.50
2022-08-03T15:10:44.453Z,50.70
2022-08-03T15:13:13.547Z,50.50
2022-08-03T15:15:40.502Z,50.10
2022-08-03T15:18:07.436Z,50.30
2022-08-03T15:20:49.899Z,50.30
2022-08-03T15:23:17.297Z,50.10
2022-08-03T15:26:06.513Z,50.10
2022-08-03T15:28:32.549Z,50.20
2022-08-03T15:30:59.539Z,50.60
2022-08-03T15:33:26.618Z,51.00
2022-08-03T15:35:53.797Z,51.30
2022-08-03T15:38:26.051Z,51.50
2022-08-03T15:40:57.123Z,51.70
2022-08-03T15:43:24.161Z,51.80
2022-08-03T15:46:12.865Z,52.10
2022-08-03T15:48:38.445Z,52.40
2022-08-03T15:51:05.526Z,53.00
2022-08-03T15:53:33.290Z,53.30
2022-08-03T15:56:01.107Z,53.70
2022-08-03T15:59:03.204Z,53.60
2022-08-03T16:01:19.798Z,53.70
2022-08-03T16:03:46.905Z,53.60
2022-08-03T16:06:14.010Z,53.70
2022-08-03T16:08:41.075Z,53.70
2022-08-03T16:11:07.969Z,53.80
2022-08-03T16:14:13.821Z,54.00
2022-08-03T16:16:21.889Z,54.40
2022-08-03T16:18:48.693Z,54.70
2022-08-03T16:21:19.422Z,54.80
2022-08-03T16:23:47.206Z,54.70
2022-08-03T16:26:14.719Z,54.70
2022-08-03T16:28:41.852Z,54.80
2022-08-03T16:31:09.445Z,54.90
2022-08-03T16:33:36.633Z,54.80
2022-08-03T16:36:03.943Z,55.00
2022-08-03T16:38:31.376Z,55.20
2022-08-03T16:40:58.503Z,55.50
2022-08-03T16:43:25.646Z,55.70
2022-08-03T16:45:52.765Z,55.80
2022-08-03T16:48:19.832Z,55.90
2022-08-03T16:50:47.495Z,56.10
2022-08-03T16:53:16.509Z,56.30
2022-08-03T16:55:53.371Z,56.60
2022-08-03T16:58:34.751Z,57.00
2022-08-03T17:01:24.289Z,57.10
2022-08-03T17:04:02.757Z,57.30
2022-08-03T17:06:34.294Z,57.50
2022-08-03T17:09:09.088Z,57.70
2022-08-03T17:11:43.861Z,58.00
2022-08-03T17:14:15.058Z,58.20
2022-08-03T17:16:52.054Z,58.40
2022-08-03T17:19:21.745Z,58.60
2022-08-03T17:22:04.279Z,58.90
2022-08-03T17:24:42.326Z,59.10
2022-08-03T17:28:42.379Z,59.30
2022-08-03T17:30:12.224Z,59.40
2022-08-03T17:32:42.132Z,59.50
2022-08-03T17:35:10.328Z,59.50
2022-08-03T17:37:58.240Z,59.60
2022-08-03T17:40:24.966Z,59.90
2022-08-03T17:42:52.638Z,60.10
2022-08-03T17:45:20.572Z,60.40
2022-08-03T17:47:57.318Z,60.60
2022-08-03T17:50:28.806Z,60.60
2022-08-03T17:53:15.123Z,60.80
2022-08-03T17:55:59.637Z,60.80
2022-08-03T17:58:41.339Z,60.80
2022-08-03T18:02:02.631Z,60.80
2022-08-03T18:04:15.253Z,60.80
2022-08-03T18:06:56.330Z,60.90
2022-08-03T18:10:03.805Z,60.90
2022-08-03T18:12:15.079Z,61.10
2022-08-03T18:14:57.295Z,61.30
2022-08-03T18:17:58.064Z,61.50
2022-08-03T18:20:33.188Z,61.80
2022-08-03T18:23:05.855Z,62.20
2022-08-03T18:25:42.357Z,62.40
2022-08-03T18:28:14.157Z,62.60
2022-08-03T18:30:54.050Z,62.80
2022-08-03T18:34:16.747Z,63.10
2022-08-03T18:36:11.608Z,63.50
2022-08-03T18:38:46.624Z,63.60
2022-08-03T18:41:20.707Z,63.60
2022-08-03T18:44:06.976Z,63.50
2022-08-03T18:46:53.063Z,63.40
2022-08-03T18:49:48.407Z,63.40
2022-08-03T18:52:27.892Z,63.60
2022-08-03T18:55:20.760Z,63.90
2022-08-03T18:58:15.954Z,64.20
2022-08-03T19:00:58.533Z,64.60
2022-08-03T19:03:42.796Z,64.90
2022-08-03T19:06:14.565Z,65.10
2022-08-03T19:09:04.973Z,65.30
2022-08-03T19:14:42.799Z,65.70
2022-08-03T19:17:11.954Z,65.80
2022-08-03T19:19:44.075Z,65.80
2022-08-03T19:22:12.232Z,66.00
2022-08-03T19:24:43.371Z,66.20
2022-08-03T19:27:10.870Z,66.50
2022-08-03T19:29:58.004Z,66.70
2022-08-03T19:32:26.701Z,67.00
2022-08-03T19:34:53.804Z,67.40
2022-08-03T19:37:23.037Z,67.60
2022-08-03T19:39:56.703Z,67.90
2022-08-03T19:42:33.672Z,68.10
2022-08-03T19:45:11.070Z,68.40
2022-08-03T19:47:52.489Z,68.50
2022-08-03T19:50:20.132Z,68.80
2022-08-03T19:52:47.891Z,68.90
2022-08-03T19:55:15.695Z,69.00
2022-08-03T19:57:45.604Z,69.30
2022-08-03T20:00:14.006Z,69.50
2022-08-03T20:02:41.423Z,69.80
2022-08-03T20:05:14.982Z,70.10
2022-08-03T20:07:42.694Z,70.40
2022-08-03T20:10:15.445Z,70.70
2022-08-03T20:12:43.618Z,71.00
2022-08-03T20:15:10.927Z,71.20
2022-08-03T20:17:57.025Z,71.50
2022-08-03T20:20:31.290Z,71.80
2022-08-03T20:22:59.445Z,71.50
2022-08-03T20:25:38.055Z,72.20
2022-08-03T20:28:14.633Z,72.50
2022-08-03T20:30:43.321Z,72.70
2022-08-03T20:33:10.416Z,72.80
2022-08-03T20:35:37.295Z,73.10
2022-08-03T20:38:04.221Z,73.30
2022-08-03T20:40:31.821Z,73.60
2022-08-03T20:42:59.855Z,73.70
2022-08-03T20:45:59.125Z,73.90
2022-08-03T20:48:15.977Z,74.00
2022-08-03T20:50:43.789Z,74.10
2022-08-03T20:53:12.670Z,74.20
2022-08-03T20:56:01.196Z,74.40
2022-08-03T20:58:26.805Z,74.30
2022-08-03T21:01:00.312Z,74.60
2022-08-03T21:03:40.774Z,74.80
2022-08-03T21:06:17.904Z,74.90
2022-08-03T21:09:00.141Z,74.90
2022-08-03T21:11:43.578Z,74.90
2022-08-03T21:13:10.762Z,65.50
2022-08-03T21:14:23.375Z,74.90
2022-08-03T21:16:51.653Z,75.00
2022-08-03T21:19:20.311Z,75.10
2022-08-03T21:21:47.730Z,75.10
2022-08-03T21:24:14.936Z,75.30
2022-08-03T21:26:42.287Z,75.30
2022-08-03T21:29:09.834Z,75.40
2022-08-03T21:31:36.791Z,75.50
2022-08-03T21:34:04.875Z,75.50
2022-08-03T21:36:33.383Z,75.60
2022-08-03T21:39:00.464Z,75.60
2022-08-03T21:41:29.730Z,75.60
2022-08-03T21:43:56.953Z,75.80
2022-08-03T21:46:24.110Z,75.90
2022-08-03T21:48:56.426Z,76.00
2022-08-03T21:51:43.383Z,76.10
2022-08-03T21:54:10.415Z,76.10
2022-08-03T21:56:41.455Z,76.20
2022-08-03T21:59:09.882Z,76.30
2022-08-03T22:01:37.103Z,76.40
2022-08-03T22:04:07.092Z,76.50
2022-08-03T22:06:34.351Z,76.60
2022-08-03T22:09:01.382Z,76.60
2022-08-03T22:11:28.453Z,76.80
2022-08-03T22:13:55.368Z,77.00
2022-08-03T22:16:22.346Z,77.10
2022-08-03T22:18:49.281Z,77.30
2022-08-03T22:21:16.885Z,77.40
2022-08-03T22:23:58.045Z,77.70
2022-08-03T22:26:32.377Z,77.90
2022-08-03T22:29:02.171Z,78.20
2022-08-03T22:31:30.745Z,78.30
2022-08-03T22:34:16.226Z,78.50
2022-08-03T22:36:43.188Z,78.60
2022-08-03T22:39:10.097Z,78.80
2022-08-03T22:41:36.929Z,79.00
2022-08-03T22:44:04.479Z,79.20
2022-08-03T22:46:31.899Z,79.30
2022-08-03T22:48:59.119Z,79.50
2022-08-03T22:51:26.276Z,79.60
2022-08-03T22:53:53.167Z,79.80
2022-08-03T22:56:20.105Z,80.00
2022-08-03T22:58:47.102Z,80.10
2022-08-03T23:01:14.162Z,80.20
2022-08-03T23:03:58.985Z,80.40
2022-08-03T23:06:31.514Z,80.50
2022-08-03T23:08:58.487Z,80.60
2022-08-03T23:11:25.292Z,80.70
2022-08-03T23:13:53.640Z,80.90
2022-08-03T23:16:29.247Z,81.00
2022-08-03T23:18:58.759Z,80.90
2022-08-03T23:21:53.416Z,80.80
2022-08-03T23:24:17.719Z,80.60
2022-08-03T23:26:56.524Z,80.20
2022-08-03T23:29:23.458Z,79.80
2022-08-03T23:31:50.504Z,79.20
2022-08-03T23:34:36.177Z,78.50
2022-08-03T23:37:03.218Z,77.90
2022-08-03T23:39:35.052Z,77.40
2022-08-03T23:42:03.135Z,77.00
2022-08-03T23:44:30.858Z,76.70
2022-08-03T23:46:57.982Z,76.40
2022-08-03T23:49:25.011Z,75.90
2022-08-03T23:52:18.514Z,75.60
2022-08-03T23:54:54.867Z,75.30
2022-08-03T23:57:55.919Z,75.10
